The ArtCat calendar is closed as of December 31, 2012. Please visit Filterizer for art recommendations.


ARTCAT

CALENDAR | HOSTING



Exhibibits at: Pierogi

view more locations in Williamburg

Pixel Dawn Clements / Andrea Way (November 19 - December 20, 2004)
Pixel William Lamson: Encounter (January 7 - February 7, 2005) PICK
Pixel Martin Wilner, History and Evidence (April 22 - May 23, 2005)
Pixel Johan Nobell, New Paintings (April 22 - May 23, 2005)
Pixel Reconfigure (July 1 - July 25, 2005) PICK
1122 1252005248.thumb Kim Jones, War Paint (September 9 - October 10, 2005)
1251 1252005444.thumb Daniel Zeller (October 14 - November 14, 2005)
1250 1252005442.thumb Lynn Talbot (October 14 - November 14, 2005)
1630 1252005996.thumb Brian Dewan and Leon Dewan (December 31 - January 31, 2006)
2269 1252008036.thumb Carey Maxon, Can You See Peace (April 14 - May 15, 2006)
2268 1252008033.thumb James Esber, No Natural Ingredients (April 14 - May 15, 2006) PICK
2531 1252008442.thumb Reed Anderson: Animal Pile (May 19 - June 19, 2006)
2532 1252008444.thumb Daniel Davidson: Warning Signs (May 19 - June 19, 2006)
2724 1252008733.thumb Summer Group Show (June 23 - July 31, 2006)
2723 1252008731.thumb Factitious (June 23 - July 31, 2006)
3099 1252009363.thumb Matt Marello and Matt Freedman, Five Years After (September 8 - October 9, 2006) PICK
3273 1252009666.thumb Tavares Strachan, Homeostatic Feedback Loop #1 (Natural Body Water) (October 13 - November 13, 2006)
3495 1252010087.thumb David Scher (November 17 - December 23, 2006)
3496 1252010089.thumb Kate Gilmore (November 17 - December 23, 2006)
3750 1252010527.thumb Tony Fitzpatrick, The Life (January 5 - February 5, 2007)
3752 1252010529.thumb Darina Karpov, New Work (January 5 - February 5, 2007)
3985 1252010925.thumb Jonathan Schipper in collaboration with Amelia Biewald, Pinnate Phlogiston (February 9 - March 12, 2007)
3984 1252010923.thumb Michael Schall, Remnants (February 9 - March 12, 2007) PICK
4267 1252011455.thumb David Shapiro, Rock Iraq (March 16 - April 16, 2007) PICK
4266 1252011453.thumb Jonathan Herder, Denomination (March 16 - April 16, 2007)
4598 1252012081.thumb Kenneth Shorr, Staring Is Caring (April 20 - May 19, 2007)
4597 1252012079.thumb Ati Maier, New Work (April 20 - May 28, 2007)
4828 1252012524.thumb (Un)Natural Selection (June 1 - July 30, 2007) PICK
5397 1252013573.thumb Jim Torok, New Work (September 7 - October 8, 2007) PICK
5703 1252015111.thumb Dawn Clements, Conditions of Desire (October 12 - November 12, 2007) PICK
5902 1252015442.thumb Lynn Talbot, Recent Painting (November 16 - December 23, 2007)
5903 1252015444.thumb Sarah Walker, Collidescape (November 16 - December 23, 2007)
Pixel Martin Wilner, More Drawings About History and Evidence (January 4 - February 4, 2008)
6099 1252015786.thumb Ryan Mrozowski, Arm In Arm With the Empty Spirit (January 4 - February 4, 2008) PICK
6469 1252016402.thumb Kim Jones, Year of the Rat (February 8 - March 10, 2008) PICK
6666 1252016728.thumb Yoon Lee (March 14 - April 14, 2008)
6667 1252016730.thumb J. Fiber (March 14 - April 14, 2008)
6975 1252017272.thumb Daniel Zeller, Geomorphical Fluxitosis (April 18 - May 19, 2008) PICK
6976 1252017274.thumb Peter Garfield, Four Seasons (April 18 - May 19, 2008) PICK
7216 1252017703.thumb Darina Karpo, Infinitely Small Disasters (May 23 - June 23, 2008)
7481 1252018194.thumb Apocalyptic Summer (June 27 - July 28, 2008)
7789 1252018755.thumb John J. O’Connor, Flannel Tongue (September 5 - October 6, 2008)
8186 1252019527.thumb Adam Dant, Temples and Theatres (October 10 - November 9, 2008)
8187 1252019529.thumb Les Stone (October 10 - November 9, 2008)
8433 1252020018.thumb Joel Stoehr, Tower of Babel (November 14 - December 21, 2008)
8432 1252020016.thumb Andrea Way, The 365 Paintings of 2007 (November 14 - December 21, 2008)
8549 1252020250.thumb Michael Schall, The Augmented Fourth (January 2 - February 1, 2009) PICK
8548 1252020248.thumb David Kramer, Snake Oil (January 2 - February 1, 2009) PICK
8840 1252020824.thumb Brian Dewan, Housed (February 6 - March 8, 2009)
8841 1252020826.thumb Nadja Bournonville, Part Two Amor Omnia Vincit (February 6 - March 8, 2009)
9123 1252021378.thumb David Shapiro, Everything Must Go (March 13 - April 13, 2009)
9320 1252021797.thumb Ward Shelley, Who Invented the Avant-garde – and other half-truths (April 17 - May 17, 2009)
9627 1252031872.thumb William Lamson, Work and Trade (May 29 - June 21, 2009)
10100 1252363955.thumb Jane Fine, Glad All Over (September 11 - October 11, 2009)
10259 1255107087.thumb Hugo Crosthwaite, Escape Rates Escaparates (October 16 - November 15, 2009)
10869 1265737441.thumb Kim Jones, Venice High (February 12 - March 14, 2010)
11097 1268759379.thumb Jim Torok, Portraits and Clowns (March 19 - April 18, 2010)
11345 1271948410.thumb Ryan Mrozowski, Luminous Fleas (April 23 - May 23, 2010) PICK
11579 1274807086.thumb Sarah Walker and Ken Weathersby (May 28 - June 27, 2010)
12006 1284247874.thumb David Scher, regular is best (September 10 - October 10, 2010) TOP PICK
12253 1288734394.thumb Daniel Zeller, Incomplete Analysis (October 15 - November 14, 2010) PICK
12254 1288734420.thumb Ati Maier, Giant Dipper (October 15 - November 14, 2010)
12522 1289920492.thumb James Esber, You, Me & Everyone Else (November 19 - December 31, 2010) PICK
12844 1295376823.thumb Patrick Jacobs, Familiar Terrain (January 21 - February 20, 2011)
13142 1298392115.thumb Mark Lombardi, Index (February 25 - April 3, 2011)
13539 1302022598.thumb Tom Burckhard, Louder Milk (April 8 - May 8, 2011)
13883 1305040980.thumb John O’Connor, What Is Toronto??? (May 13 - June 12, 2011)
14246 1308930477.thumb Subjective / Objective (June 24 - July 31, 2011)
15123 1318360024.thumb David Scher at Pierogi: Between the Acts: the Bagnolo Suite, Gallery 2 (October 14 - November 13, 2011)
15122 1318860926.thumb Brian Dewan at Pierogi: The Tide Waits for No Man (October 14 - November 13, 2011)
15558 1321467002.thumb David Brody at Pierogi:Journey to the Center of the Earth (November 17 - December 23, 2011)
15561 1321474771.thumb Lynn Talbot, No Consequences (November 17 - December 23, 2011)
15877 1325784639.thumb Dawn Clements: New Work (January 6 - February 19, 2012)
16189 1328380853.thumb Ward Shelley: Unreliable Narrator (February 17 - March 18, 2012) PICK
16681 1332096859.thumb Jane Fine at Pierogi: Formulas for Now (March 23 - April 22, 2012) PICK
16984 1334776368.thumb Ryan Mrozowski at Pierogi: A Mouth that Might Sing (April 27 - May 27, 2012)
17338 1337968798.thumb William Lamson at Pierogi: Action for the Delaware (June 1 - July 1, 2012)
17332 1337967012.thumb Ken Weathersby at Pierogi: Strange Fit (June 1 - July 1, 2012)
17728 1342121915.thumb Modus Vivendi (July 6 - July 29, 2012)
17977 1345843013.thumb Hugo Crosthwaite (September 7 - October 7, 2012)
17979 1345843161.thumb Matt Marello (September 7 - October 7, 2012)
Pixel Hugo Crosthwaite, Carnivorall & Matt Marello (September 7 - October 7, 2012)
18429 1349386678.thumb Kim Jones: Averno (October 12 - November 11, 2012) PICK
18764 1352489816.thumb Yoon Lee: Road to Absolution (November 16 - December 23, 2012)